Florijngracht — PBSU — position and weather

sailwx.info

Track history (hours):
 
Tides and Currents Weather Stations Pressure Air Temp Water Temp Dewpoint Dewpoint Depression Visibility Wind Speed Wind Dir Waves Ship Positions

Florijngracht

Last reported at 2017-Oct-21 12:36 UTC. Time now 2017-Nov-20 02:07 UTC.
Position N 04°06' W 010°00'.
Warning: this ship's position is 29 days out of date.

Length 137 m; draft 8.2 m.

Type: Cargo ship. MMSI: 246592000.

Date/timePositionNaut miles runAvg speedWind from/ knotsBaromVisibWave heightAir tempDewpointWater temp
2017-Oct-21 12:36N 04°06' W 010°00'213.9
2017-Oct-21 12:26N 04°06' W 010°03'714.5
2017-Oct-21 11:57N 04°10' W 010°09'714.4
2017-Oct-21 11:29N 04°13' W 010°14'714.2
2017-Oct-21 10:59N 04°17' W 010°21'  
2017-Oct-16 12:03N 27°49' W 016°24'114.2
2017-Oct-16 11:58N 27°51' W 016°23'1014.2
2017-Oct-16 11:14N 28°00' W 016°20'714.4
2017-Oct-16 10:46N 28°06' W 016°15'414.5
2017-Oct-16 10:28N 28°09' W 016°12'714.7
2017-Oct-16 10:00N 28°14' W 016°07'814.7
2017-Oct-16 09:29N 28°20' W 016°01'714.6
2017-Oct-16 09:00N 28°25' W 015°56'714.5
2017-Oct-16 08:30N 28°31' W 015°51'714.4
2017-Oct-16 08:00N 28°36' W 015°46'714.2
2017-Oct-16 07:30N 28°42' W 015°41'714.3
2017-Oct-16 07:00N 28°49' W 015°37'714.6
2017-Oct-16 06:30N 28°55' W 015°33'714.4
2017-Oct-16 06:00N 29°01' W 015°30'714.4
2017-Oct-16 05:30N 29°08' W 015°27'714.4
2017-Oct-16 05:00N 29°16' W 015°25'714.7
2017-Oct-16 04:30N 29°22' W 015°23'714.7
2017-Oct-16 04:00N 29°30' W 015°21'714.6
2017-Oct-16 03:31N 29°37' W 015°18'714.6
2017-Oct-16 03:00N 29°44' W 015°16'714.7
2017-Oct-16 02:30N 29°51' W 015°14'714.7
2017-Oct-16 02:00N 29°58' W 015°12'714.7
2017-Oct-16 01:30N 30°05' W 015°10'714.6
2017-Oct-16 01:00N 30°12' W 015°07'714.7
2017-Oct-16 00:30N 30°19' W 015°05'714.6
2017-Oct-16 00:00N 30°26' W 015°03'714.6
2017-Oct-15 23:30N 30°33' W 015°01'714.8
2017-Oct-15 23:00N 30°40' W 014°58'714.9
2017-Oct-15 22:30N 30°47' W 014°56'714.8
2017-Oct-15 22:00N 30°54' W 014°54'714.7
2017-Oct-15 21:30N 31°02' W 014°51'715.0
2017-Oct-15 21:00N 31°09' W 014°49'815.1
2017-Oct-15 20:30N 31°16' W 014°47'815.0
2017-Oct-15 20:00N 31°23' W 014°44'714.7
2017-Oct-15 19:30N 31°30' W 014°42'714.8
2017-Oct-15 19:00N 31°37' W 014°39'714.6
2017-Oct-15 18:30N 31°44' W 014°37'714.7
2017-Oct-15 18:00N 31°52' W 014°35'1114.7
2017-Oct-15 17:17N 32°02' W 014°31'414.7
2017-Oct-15 17:00N 32°06' W 014°30'714.7
2017-Oct-15 16:30N 32°13' W 014°28'28713.6
2017-Oct-14 19:23N 36°49' W 012°55'514.3
2017-Oct-14 19:00N 36°54' W 012°53'714.2
2017-Oct-14 18:30N 37°01' W 012°50'713.9
2017-Oct-14 18:00N 37°07' W 012°48'713.6
2017-Oct-14 17:30N 37°14' W 012°45'713.7
2017-Oct-14 17:00N 37°21' W 012°43'713.7
2017-Oct-14 16:30N 37°27' W 012°41'713.8
2017-Oct-14 16:01N 37°34' W 012°39'713.9
2017-Oct-14 15:30N 37°41' W 012°36'713.9
2017-Oct-14 15:00N 37°47' W 012°34'713.9
2017-Oct-14 14:30N 37°54' W 012°32'714.0
2017-Oct-14 14:00N 38°01' W 012°29'713.6
2017-Oct-14 13:30N 38°07' W 012°27'713.5
2017-Oct-14 13:00N 38°14' W 012°24'713.4
2017-Oct-14 12:30N 38°20' W 012°22'3213.6
2017-Oct-14 10:10N 38°51' W 012°11'214.1
2017-Oct-14 10:00N 38°53' W 012°10'714.5
2017-Oct-14 09:30N 39°00' W 012°08'1114.3
2017-Oct-14 08:46N 39°10' W 012°04'714.1
2017-Oct-14 08:17N 39°17' W 012°02'414.1
2017-Oct-14 07:59N 39°21' W 012°01'2114.4
2017-Oct-14 06:32N 39°41' W 011°53'014.6
2017-Oct-14 06:31N 39°41' W 011°53'1614.4
2017-Oct-14 05:23N 39°57' W 011°47'614.2
2017-Oct-14 04:59N 40°02' W 011°45'714.3
2017-Oct-14 04:30N 40°09' W 011°43'714.2
2017-Oct-14 04:00N 40°16' W 011°41'714.1
2017-Oct-14 03:30N 40°23' W 011°38'914.3
2017-Oct-14 02:52N 40°32' W 011°35'514.3
2017-Oct-14 02:30N 40°37' W 011°33'1214.1
2017-Oct-14 01:38N 40°48' W 011°29'214.4
2017-Oct-14 01:30N 40°50' W 011°29'714.2
2017-Oct-14 01:00N 40°57' W 011°25'714.5
2017-Oct-14 00:30N 41°04' W 011°23'4314.6
2017-Oct-13 21:34N 41°45' W 011°08'114.5
2017-Oct-13 21:30N 41°46' W 011°08'714.5
2017-Oct-13 21:00N 41°53' W 011°05'1314.5
2017-Oct-13 20:06N 42°06' W 010°60'114.6
2017-Oct-13 20:00N 42°07' W 010°59'1114.3
2017-Oct-13 19:15N 42°17' W 010°55'414.4
2017-Oct-13 18:57N 42°21' W 010°54'47213.8
2017-Oct-12 08:47N 49°07' W 005°10'411.4
2017-Oct-12 08:25N 49°09' W 005°04'2311.1
2017-Oct-12 06:23N 49°21' W 004°35'512.3
2017-Oct-12 06:00N 49°23' W 004°28'3913.4
2017-Oct-12 03:05N 49°43' W 003°36'213.4
2017-Oct-12 02:56N 49°44' W 003°34'613.3
2017-Oct-12 02:29N 49°47' W 003°26'613.0
2017-Oct-12 02:00N 49°50' W 003°17'612.7
2017-Oct-12 01:30N 49°53' W 003°08'612.1
2017-Oct-12 01:00N 49°56' W 003°00'611.5
2017-Oct-12 00:30N 49°58' W 002°52'611.2
2017-Oct-12 00:00N 49°60' W 002°44'  
Track history (hours):
 
Tides and Currents Weather Stations Pressure Air Temp Water Temp Dewpoint Dewpoint Depression Visibility Wind Speed Wind Dir Waves Ship Positions

Florijngracht

Last reported at 2017-Oct-21 12:36 UTC. Time now 2017-Nov-20 02:07 UTC.
Position N 04°06' W 010°00'.
Warning: this ship's position is 29 days out of date.

Length 137 m; draft 8.2 m.

Type: Cargo ship. MMSI: 246592000.

Date/timePositionNaut miles runAvg speedWind from/ knotsBaromVisibWave heightAir tempDewpointWater temp
2017-Oct-21 12:36N 04°06' W 010°00'213.9
2017-Oct-21 12:26N 04°06' W 010°03'714.5
2017-Oct-21 11:57N 04°10' W 010°09'714.4
2017-Oct-21 11:29N 04°13' W 010°14'714.2
2017-Oct-21 10:59N 04°17' W 010°21'  
2017-Oct-16 12:03N 27°49' W 016°24'114.2
2017-Oct-16 11:58N 27°51' W 016°23'1014.2
2017-Oct-16 11:14N 28°00' W 016°20'714.4
2017-Oct-16 10:46N 28°06' W 016°15'414.5
2017-Oct-16 10:28N 28°09' W 016°12'714.7
2017-Oct-16 10:00N 28°14' W 016°07'814.7
2017-Oct-16 09:29N 28°20' W 016°01'714.6
2017-Oct-16 09:00N 28°25' W 015°56'714.5
2017-Oct-16 08:30N 28°31' W 015°51'714.4
2017-Oct-16 08:00N 28°36' W 015°46'714.2
2017-Oct-16 07:30N 28°42' W 015°41'714.3
2017-Oct-16 07:00N 28°49' W 015°37'714.6
2017-Oct-16 06:30N 28°55' W 015°33'714.4
2017-Oct-16 06:00N 29°01' W 015°30'714.4
2017-Oct-16 05:30N 29°08' W 015°27'714.4
2017-Oct-16 05:00N 29°16' W 015°25'714.7
2017-Oct-16 04:30N 29°22' W 015°23'714.7
2017-Oct-16 04:00N 29°30' W 015°21'714.6
2017-Oct-16 03:31N 29°37' W 015°18'714.6
2017-Oct-16 03:00N 29°44' W 015°16'714.7
2017-Oct-16 02:30N 29°51' W 015°14'714.7
2017-Oct-16 02:00N 29°58' W 015°12'714.7
2017-Oct-16 01:30N 30°05' W 015°10'714.6
2017-Oct-16 01:00N 30°12' W 015°07'714.7
2017-Oct-16 00:30N 30°19' W 015°05'714.6
2017-Oct-16 00:00N 30°26' W 015°03'714.6
2017-Oct-15 23:30N 30°33' W 015°01'714.8
2017-Oct-15 23:00N 30°40' W 014°58'714.9
2017-Oct-15 22:30N 30°47' W 014°56'714.8
2017-Oct-15 22:00N 30°54' W 014°54'714.7
2017-Oct-15 21:30N 31°02' W 014°51'715.0
2017-Oct-15 21:00N 31°09' W 014°49'815.1
2017-Oct-15 20:30N 31°16' W 014°47'815.0
2017-Oct-15 20:00N 31°23' W 014°44'714.7
2017-Oct-15 19:30N 31°30' W 014°42'714.8
2017-Oct-15 19:00N 31°37' W 014°39'714.6
2017-Oct-15 18:30N 31°44' W 014°37'714.7
2017-Oct-15 18:00N 31°52' W 014°35'1114.7
2017-Oct-15 17:17N 32°02' W 014°31'414.7
2017-Oct-15 17:00N 32°06' W 014°30'714.7
2017-Oct-15 16:30N 32°13' W 014°28'28713.6
2017-Oct-14 19:23N 36°49' W 012°55'514.3
2017-Oct-14 19:00N 36°54' W 012°53'714.2
2017-Oct-14 18:30N 37°01' W 012°50'713.9
2017-Oct-14 18:00N 37°07' W 012°48'713.6
2017-Oct-14 17:30N 37°14' W 012°45'713.7
2017-Oct-14 17:00N 37°21' W 012°43'713.7
2017-Oct-14 16:30N 37°27' W 012°41'713.8
2017-Oct-14 16:01N 37°34' W 012°39'713.9
2017-Oct-14 15:30N 37°41' W 012°36'713.9
2017-Oct-14 15:00N 37°47' W 012°34'713.9
2017-Oct-14 14:30N 37°54' W 012°32'714.0
2017-Oct-14 14:00N 38°01' W 012°29'713.6
2017-Oct-14 13:30N 38°07' W 012°27'713.5
2017-Oct-14 13:00N 38°14' W 012°24'713.4
2017-Oct-14 12:30N 38°20' W 012°22'3213.6
2017-Oct-14 10:10N 38°51' W 012°11'214.1
2017-Oct-14 10:00N 38°53' W 012°10'714.5
2017-Oct-14 09:30N 39°00' W 012°08'1114.3
2017-Oct-14 08:46N 39°10' W 012°04'714.1
2017-Oct-14 08:17N 39°17' W 012°02'414.1
2017-Oct-14 07:59N 39°21' W 012°01'2114.4
2017-Oct-14 06:32N 39°41' W 011°53'014.6
2017-Oct-14 06:31N 39°41' W 011°53'1614.4
2017-Oct-14 05:23N 39°57' W 011°47'614.2
2017-Oct-14 04:59N 40°02' W 011°45'714.3
2017-Oct-14 04:30N 40°09' W 011°43'714.2
2017-Oct-14 04:00N 40°16' W 011°41'714.1
2017-Oct-14 03:30N 40°23' W 011°38'914.3
2017-Oct-14 02:52N 40°32' W 011°35'514.3
2017-Oct-14 02:30N 40°37' W 011°33'1214.1
2017-Oct-14 01:38N 40°48' W 011°29'214.4
2017-Oct-14 01:30N 40°50' W 011°29'714.2
2017-Oct-14 01:00N 40°57' W 011°25'714.5
2017-Oct-14 00:30N 41°04' W 011°23'4314.6
2017-Oct-13 21:34N 41°45' W 011°08'114.5
2017-Oct-13 21:30N 41°46' W 011°08'714.5
2017-Oct-13 21:00N 41°53' W 011°05'1314.5
2017-Oct-13 20:06N 42°06' W 010°60'114.6
2017-Oct-13 20:00N 42°07' W 010°59'1114.3
2017-Oct-13 19:15N 42°17' W 010°55'414.4
2017-Oct-13 18:57N 42°21' W 010°54'47213.8
2017-Oct-12 08:47N 49°07' W 005°10'411.4
2017-Oct-12 08:25N 49°09' W 005°04'2311.1
2017-Oct-12 06:23N 49°21' W 004°35'512.3
2017-Oct-12 06:00N 49°23' W 004°28'3913.4
2017-Oct-12 03:05N 49°43' W 003°36'213.4
2017-Oct-12 02:56N 49°44' W 003°34'613.3
2017-Oct-12 02:29N 49°47' W 003°26'613.0
2017-Oct-12 02:00N 49°50' W 003°17'612.7
2017-Oct-12 01:30N 49°53' W 003°08'612.1
2017-Oct-12 01:00N 49°56' W 003°00'611.5
2017-Oct-12 00:30N 49°58' W 002°52'611.2
2017-Oct-12 00:00N 49°60' W 002°44'  

Dump ship's entire track history